Pleasant Lake, Indiana
Current Conditions -  °F | °C
As of 3:55 PM on Monday 22 Dec 2014 (Local Time) from KANQ Reporting Station
Overcast Overcast  
Wind Chill: 29°   Ceiling: 3700
Heat Index: 36°   Visibility: 9mi
Dew Point: 30°   Wind: 9mph
Humidity: 81%   Direction: 120°ESE
Pressure: 29.85"   Gusts: NA
Location:  41.58°N, 85.02°W
Report Text: KANQ 222055Z AUTO 12008KT 9SM SCT023 BKN037 OVC046 02/M01 A2985 RMK
Loading
Personal Weather Stations






























Interactive Weather Map New forecast layout! Learn more

10-Day Weather Forecast

Advertisements
Track Severe Weather on mobile